Time;durP1;ratioP1;P1;durP2;ratioP2;P2;SDS_P1;SDS_P2;PMS_P1;PMS_P2;Temp;Humidity;BMP_temperature;BMP_pressure;BME280_temperature;BME280_humidity;BME280_pressure;Samples;Min_cycle;Max_cycle;Signal;HPM_P1;HPM_P2
2021/07/09 00:01:09;;;;;;;9.50;6.65;;;;;;;;;;5054842;28;20039;-79
2021/07/09 00:03:35;;;;;;;6.47;5.35;;;;;;;;;;5069813;28;20032;-78
2021/07/09 00:06:01;;;;;;;7.82;5.30;;;;;;;;;;5074736;28;20467;-78
2021/07/09 00:08:27;;;;;;;7.70;5.18;;;;;;;;;;5075199;28;20103;-79
2021/07/09 00:10:52;;;;;;;6.68;4.88;;;;;;;;;;5074525;28;20656;-79
2021/07/09 00:13:18;;;;;;;5.30;4.80;;;;;;;;;;5074496;28;20038;-79
2021/07/09 00:15:43;;;;;;;8.95;4.45;;;;;;;;;;5074760;28;20020;-79
2021/07/09 00:18:09;;;;;;;7.15;4.30;;;;;;;;;;5074431;28;20471;-79
2021/07/09 00:20:34;;;;;;;8.60;4.90;;;;;;;;;;5074369;28;20448;-78
2021/07/09 00:23:00;;;;;;;6.85;4.43;;;;;;;;;;5074328;28;20028;-79
2021/07/09 00:25:26;;;;;;;6.55;5.07;;;;;;;;;;5074357;28;20458;-79
2021/07/09 00:27:51;;;;;;;11.48;6.28;;;;;;;;;;5074471;28;20028;-79
2021/07/09 00:30:17;;;;;;;7.97;5.70;;;;;;;;;;5074455;28;20027;-79
2021/07/09 00:32:43;;;;;;;7.15;4.93;;;;;;;;;;5066359;28;20031;-77
2021/07/09 00:35:09;;;;;;;6.55;4.60;;;;;;;;;;5054084;28;20096;-76
2021/07/09 00:37:35;;;;;;;9.02;5.38;;;;;;;;;;5054938;28;20039;-72
2021/07/09 00:40:06;;;;;;;5.53;4.70;;;;;;;;;;5054957;28;20024;-72
2021/07/09 00:42:32;;;;;;;8.65;4.35;;;;;;;;;;5055273;28;20025;-72
2021/07/09 00:44:57;;;;;;;5.20;4.70;;;;;;;;;;5054908;28;20113;-73
2021/07/09 00:47:22;;;;;;;10.57;4.72;;;;;;;;;;5054807;28;20044;-73
2021/07/09 00:49:49;;;;;;;7.40;4.55;;;;;;;;;;5054427;28;20021;-72
2021/07/09 00:52:16;;;;;;;9.10;5.03;;;;;;;;;;5054335;28;20113;-72
2021/07/09 00:54:41;;;;;;;9.13;4.97;;;;;;;;;;5054430;28;20068;-72
2021/07/09 00:57:07;;;;;;;7.97;5.30;;;;;;;;;;5054560;28;20424;-72
2021/07/09 00:59:46;;;;;;;8.25;5.65;;;;;;;;;;5054600;28;20032;-73
2021/07/09 01:02:11;;;;;;;7.57;5.15;;;;;;;;;;5054920;28;20075;-74
2021/07/09 01:04:37;;;;;;;8.45;5.38;;;;;;;;;;5054486;28;20441;-73
2021/07/09 01:07:04;;;;;;;8.45;5.13;;;;;;;;;;5054281;28;20032;-73
2021/07/09 01:09:30;;;;;;;8.18;5.30;;;;;;;;;;5054298;28;20127;-72
2021/07/09 01:12:01;;;;;;;6.15;4.63;;;;;;;;;;5054214;28;20097;-72
2021/07/09 01:14:27;;;;;;;6.85;4.35;;;;;;;;;;5054261;28;20083;-72
2021/07/09 01:16:52;;;;;;;6.35;4.55;;;;;;;;;;5054360;28;20029;-72
2021/07/09 01:19:21;;;;;;;7.70;4.50;;;;;;;;;;5053908;28;20361;-72
2021/07/09 01:21:48;;;;;;;5.80;4.00;;;;;;;;;;5036001;28;20029;-73
2021/07/09 01:24:14;;;;;;;6.90;4.03;;;;;;;;;;5053524;28;20056;-73
2021/07/09 01:26:45;;;;;;;11.75;4.10;;;;;;;;;;5053716;28;20029;-73
2021/07/09 01:29:12;;;;;;;6.22;3.65;;;;;;;;;;5053816;28;20379;-73
2021/07/09 01:31:39;;;;;;;6.13;3.83;;;;;;;;;;5053964;28;20059;-73
2021/07/09 01:34:05;;;;;;;4.90;3.45;;;;;;;;;;5054077;28;20445;-73
2021/07/09 01:36:32;;;;;;;4.93;3.60;;;;;;;;;;5053619;28;20074;-72
2021/07/09 01:39:01;;;;;;;9.15;3.60;;;;;;;;;;5041289;28;20048;-73
2021/07/09 01:41:26;;;;;;;4.75;3.00;;;;;;;;;;5033586;28;20022;-73
2021/07/09 01:43:53;;;;;;;8.07;3.58;;;;;;;;;;5033461;28;20036;-72
2021/07/09 01:46:18;;;;;;;7.95;3.35;;;;;;;;;;5033511;28;20040;-72
2021/07/09 01:48:45;;;;;;;8.07;3.03;;;;;;;;;;5033573;28;20022;-72
2021/07/09 01:51:11;;;;;;;5.35;2.92;;;;;;;;;;5033545;28;20095;-73
2021/07/09 01:53:38;;;;;;;6.05;2.80;;;;;;;;;;5033532;28;20017;-73
2021/07/09 01:56:04;;;;;;;5.10;2.72;;;;;;;;;;5036686;28;20024;-73
2021/07/09 01:58:42;;;;;;;7.55;3.25;;;;;;;;;;5053314;28;20109;-72
2021/07/09 02:01:07;;;;;;;4.82;2.97;;;;;;;;;;5053525;28;20025;-72
2021/07/09 02:03:33;;;;;;;6.88;2.90;;;;;;;;;;5053249;28;20364;-73
2021/07/09 02:06:01;;;;;;;4.22;2.90;;;;;;;;;;5053155;28;20083;-73
2021/07/09 02:08:26;;;;;;;6.00;2.90;;;;;;;;;;5053042;28;20056;-74
2021/07/09 02:10:58;;;;;;;5.68;3.08;;;;;;;;;;5053140;28;20118;-73
2021/07/09 02:13:23;;;;;;;5.55;3.03;;;;;;;;;;5053182;28;20080;-72
2021/07/09 02:15:49;;;;;;;4.05;3.00;;;;;;;;;;5053137;28;20106;-73
2021/07/09 02:18:16;;;;;;;5.28;3.13;;;;;;;;;;5052990;28;20163;-72
2021/07/09 02:20:43;;;;;;;5.93;3.28;;;;;;;;;;5052784;28;20101;-73
2021/07/09 02:23:13;;;;;;;5.40;2.90;;;;;;;;;;5052641;28;20052;-73
2021/07/09 02:25:39;;;;;;;5.82;3.10;;;;;;;;;;5052867;28;20037;-72
2021/07/09 02:28:05;;;;;;;3.83;2.80;;;;;;;;;;5052912;28;20032;-73
2021/07/09 02:30:31;;;;;;;6.10;3.28;;;;;;;;;;5034808;28;20023;-72
2021/07/09 02:32:57;;;;;;;5.13;3.10;;;;;;;;;;5052629;28;20380;-73
2021/07/09 02:35:31;;;;;;;5.13;2.85;;;;;;;;;;5038773;28;20049;-73
2021/07/09 02:37:57;;;;;;;4.18;3.05;;;;;;;;;;5032717;28;20385;-72
2021/07/09 02:40:26;;;;;;;5.25;2.90;;;;;;;;;;5032649;28;20060;-73
2021/07/09 02:42:54;;;;;;;6.78;2.80;;;;;;;;;;5032628;28;20366;-72
2021/07/09 02:45:21;;;;;;;6.32;2.75;;;;;;;;;;5032615;28;20033;-72
2021/07/09 02:47:48;;;;;;;8.73;2.78;;;;;;;;;;5032828;28;20053;-73
2021/07/09 02:50:16;;;;;;;8.93;3.60;;;;;;;;;;5032520;28;20419;-72
2021/07/09 02:52:42;;;;;;;5.35;3.22;;;;;;;;;;5032623;28;20025;-73
2021/07/09 02:55:09;;;;;;;6.75;3.28;;;;;;;;;;5032707;28;20419;-72
2021/07/09 02:57:35;;;;;;;5.05;3.10;;;;;;;;;;5050661;28;20380;-72
2021/07/09 03:00:05;;;;;;;7.63;3.30;;;;;;;;;;5052770;28;20028;-72
2021/07/09 03:02:31;;;;;;;5.60;3.22;;;;;;;;;;5052558;28;20086;-73
2021/07/09 03:04:56;;;;;;;4.25;3.40;;;;;;;;;;5052550;28;20056;-73
2021/07/09 03:07:25;;;;;;;8.07;3.38;;;;;;;;;;5052622;28;20053;-72
2021/07/09 03:09:51;;;;;;;5.22;3.58;;;;;;;;;;5052600;28;20021;-72
2021/07/09 03:12:17;;;;;;;6.40;3.63;;;;;;;;;;5071781;28;20483;-74
2021/07/09 03:14:42;;;;;;;6.68;4.00;;;;;;;;;;5072557;28;20017;-73
2021/07/09 03:17:08;;;;;;;9.63;4.00;;;;;;;;;;5072093;28;20027;-73
2021/07/09 03:19:33;;;;;;;7.20;3.65;;;;;;;;;;5072490;28;20032;-73
2021/07/09 03:22:00;;;;;;;5.75;3.70;;;;;;;;;;5054763;28;20025;-72
2021/07/09 03:24:25;;;;;;;5.82;3.50;;;;;;;;;;5072560;28;20032;-73
2021/07/09 03:26:51;;;;;;;6.30;3.83;;;;;;;;;;5071188;28;20498;-78
2021/07/09 03:29:16;;;;;;;4.57;3.55;;;;;;;;;;5071949;28;20039;-76
2021/07/09 03:31:42;;;;;;;5.13;3.42;;;;;;;;;;5071589;28;20035;-76
2021/07/09 03:34:07;;;;;;;7.28;3.50;;;;;;;;;;5071555;28;20058;-76
2021/07/09 03:36:34;;;;;;;5.50;3.75;;;;;;;;;;5071450;28;20045;-75
2021/07/09 03:39:00;;;;;;;6.88;3.40;;;;;;;;;;5058941;28;20029;-78
2021/07/09 03:41:26;;;;;;;6.10;3.38;;;;;;;;;;5051391;28;20044;-78
2021/07/09 03:43:52;;;;;;;6.32;3.35;;;;;;;;;;5051401;28;20032;-78
2021/07/09 03:46:17;;;;;;;5.15;2.90;;;;;;;;;;5051330;28;20380;-78
2021/07/09 03:48:43;;;;;;;6.20;3.38;;;;;;;;;;5053710;28;20025;-78
2021/07/09 03:51:08;;;;;;;5.93;3.50;;;;;;;;;;5055034;28;20147;-79
2021/07/09 03:53:35;;;;;;;5.15;3.28;;;;;;;;;;5055204;28;20024;-79
2021/07/09 03:56:00;;;;;;;3.63;3.28;;;;;;;;;;5061606;28;20028;-77
2021/07/09 03:58:26;;;;;;;6.75;3.45;;;;;;;;;;5074954;28;20021;-78
2021/07/09 04:00:52;;;;;;;6.45;3.25;;;;;;;;;;5059361;28;20029;-79
2021/07/09 04:03:17;;;;;;;8.60;3.55;;;;;;;;;;5056141;28;20074;-79
2021/07/09 04:06:20;;;;;;;5.90;2.90;;;;;;;;;;5056426;28;20025;-76
2021/07/09 04:08:46;;;;;;;6.32;3.08;;;;;;;;;;5062503;28;20032;-76
2021/07/09 04:11:11;;;;;;;5.32;3.03;;;;;;;;;;5065029;28;20053;-77
2021/07/09 04:13:44;;;;;;;4.65;2.80;;;;;;;;;;5056470;28;20033;-76
2021/07/09 04:16:09;;;;;;;6.70;3.07;;;;;;;;;;5056193;28;20033;-76
2021/07/09 04:18:35;;;;;;;7.60;3.40;;;;;;;;;;5055998;28;20311;-76
2021/07/09 04:21:02;;;;;;;6.20;3.00;;;;;;;;;;5055281;28;20108;-77
2021/07/09 04:23:27;;;;;;;5.78;3.00;;;;;;;;;;5055878;28;20445;-77
2021/07/09 04:25:53;;;;;;;6.13;2.67;;;;;;;;;;5049934;28;20108;-76
2021/07/09 04:28:18;;;;;;;7.90;3.00;;;;;;;;;;5047547;28;20033;-79
2021/07/09 04:30:44;;;;;;;6.43;2.75;;;;;;;;;;5053342;28;20025;-79
2021/07/09 04:33:09;;;;;;;5.60;2.90;;;;;;;;;;5055499;28;20037;-79
2021/07/09 04:38:57;;;;;;;5.75;2.50;;;;;;;;;;5056099;28;20067;-78
2021/07/09 04:41:30;;;;;;;6.35;2.83;;;;;;;;;;5052030;28;20066;-78
2021/07/09 04:43:56;;;;;;;4.57;2.70;;;;;;;;;;5055524;28;20361;-79
2021/07/09 04:46:21;;;;;;;5.72;2.67;;;;;;;;;;5055155;28;20029;-78
2021/07/09 04:48:47;;;;;;;4.53;2.50;;;;;;;;;;5054673;28;20024;-78
2021/07/09 04:51:12;;;;;;;5.53;2.40;;;;;;;;;;5049538;28;20368;-78
2021/07/09 04:53:44;;;;;;;4.72;2.83;;;;;;;;;;5054484;28;20526;-78
2021/07/09 04:56:09;;;;;;;6.10;2.42;;;;;;;;;;5038071;28;20029;-77
2021/07/09 04:58:38;;;;;;;9.55;2.40;;;;;;;;;;5043140;28;20029;-77
2021/07/09 05:01:18;;;;;;;5.15;2.20;;;;;;;;;;5036382;28;20030;-77
2021/07/09 05:03:43;;;;;;;4.63;2.22;;;;;;;;;;5047740;28;20021;-72
2021/07/09 05:06:08;;;;;;;5.55;2.50;;;;;;;;;;5038017;28;20083;-74
2021/07/09 05:08:51;;;;;;;4.88;2.20;;;;;;;;;;5035083;28;20048;-73
2021/07/09 05:11:59;;;;;;;3.85;2.20;;;;;;;;;;5053129;28;20128;-76
2021/07/09 05:14:24;;;;;;;5.50;2.30;;;;;;;;;;5052572;28;20045;-77
2021/07/09 05:16:57;;;;;;;3.85;2.20;;;;;;;;;;5047838;28;20429;-77
2021/07/09 05:19:23;;;;;;;6.68;2.28;;;;;;;;;;5054924;28;20025;-78
2021/07/09 05:21:48;;;;;;;4.15;2.20;;;;;;;;;;5055045;28;20036;-77
2021/07/09 05:24:22;;;;;;;6.28;2.30;;;;;;;;;;5053903;28;20465;-78
2021/07/09 05:26:48;;;;;;;4.35;2.42;;;;;;;;;;5035467;28;20095;-77
2021/07/09 05:29:13;;;;;;;4.15;2.05;;;;;;;;;;5054711;28;20025;-78
2021/07/09 05:31:47;;;;;;;5.18;2.28;;;;;;;;;;5050673;28;20060;-78
2021/07/09 05:34:12;;;;;;;5.10;2.20;;;;;;;;;;5045425;28;20017;-78
2021/07/09 05:36:38;;;;;;;6.38;2.10;;;;;;;;;;5038934;28;20075;-78
2021/07/09 05:39:05;;;;;;;4.70;2.08;;;;;;;;;;5043041;28;20051;-79
2021/07/09 05:41:33;;;;;;;4.63;2.03;;;;;;;;;;5051821;28;20444;-78
2021/07/09 05:43:59;;;;;;;4.55;1.90;;;;;;;;;;5054184;28;20368;-79
2021/07/09 05:46:26;;;;;;;4.60;1.90;;;;;;;;;;5054562;28;20021;-78
2021/07/09 05:48:58;;;;;;;4.68;1.98;;;;;;;;;;5053768;28;20494;-78
2021/07/09 05:51:23;;;;;;;5.57;2.03;;;;;;;;;;5036924;28;20377;-78
2021/07/09 05:53:57;;;;;;;3.05;1.75;;;;;;;;;;5034378;28;20021;-77
2021/07/09 05:56:22;;;;;;;;;;;;;;;;;;5052974;28;20036;-78
2021/07/09 05:58:47;;;;;;;4.35;1.88;;;;;;;;;;5037510;28;20267;-78
2021/07/09 06:01:13;;;;;;;3.75;1.77;;;;;;;;;;5032804;28;20033;-77
2021/07/09 06:03:38;;;;;;;3.95;1.90;;;;;;;;;;5032814;28;20036;-77
2021/07/09 06:06:04;;;;;;;3.75;1.83;;;;;;;;;;5052175;28;20112;-78
2021/07/09 06:08:37;;;;;;;2.90;1.65;;;;;;;;;;5045101;28;20064;-77
2021/07/09 06:11:03;;;;;;;;;;;;;;;;;;5053599;28;20049;-77
2021/07/09 06:13:28;;;;;;;9.85;2.13;;;;;;;;;;5053916;28;19915;-77
2021/07/09 06:15:55;;;;;;;4.03;1.83;;;;;;;;;;5053923;28;20024;-79
2021/07/09 06:18:22;;;;;;;3.63;1.48;;;;;;;;;;5053982;28;20031;-77
2021/07/09 06:20:47;;;;;;;4.80;1.80;;;;;;;;;;5051842;28;20025;-77
2021/07/09 06:23:31;;;;;;;6.78;1.80;;;;;;;;;;5042627;28;20024;-74
2021/07/09 06:25:57;;;;;;;4.70;1.65;;;;;;;;;;5033801;28;20091;-75
2021/07/09 06:28:30;;;;;;;4.95;1.85;;;;;;;;;;5021889;28;20040;-76
2021/07/09 06:30:55;;;;;;;4.70;1.73;;;;;;;;;;5035579;28;20021;-76
2021/07/09 06:33:23;;;;;;;4.20;1.80;;;;;;;;;;5037156;28;20041;-75
2021/07/09 06:35:49;;;;;;;3.25;1.60;;;;;;;;;;5037610;28;20029;-75
2021/07/09 06:38:15;;;;;;;2.97;1.65;;;;;;;;;;5048689;28;20029;-74
2021/07/09 06:40:43;;;;;;;4.38;1.67;;;;;;;;;;5045759;28;20039;-74
2021/07/09 06:43:11;;;;;;;3.97;1.73;;;;;;;;;;5022131;28;20028;-74
2021/07/09 06:45:38;;;;;;;5.45;1.70;;;;;;;;;;5039118;28;20040;-75
2021/07/09 06:48:04;;;;;;;4.53;1.80;;;;;;;;;;5035348;28;20033;-74
2021/07/09 06:50:29;;;;;;;2.50;1.58;;;;;;;;;;5047378;28;20353;-73
2021/07/09 06:52:55;;;;;;;5.07;1.75;;;;;;;;;;5033157;28;20036;-74
2021/07/09 06:55:20;;;;;;;5.57;1.70;;;;;;;;;;5042056;28;20341;-73
2021/07/09 06:57:47;;;;;;;4.80;1.67;;;;;;;;;;5039687;28;20048;-75
2021/07/09 07:00:14;;;;;;;2.58;1.60;;;;;;;;;;5041619;28;20369;-76
2021/07/09 07:02:40;;;;;;;3.15;1.50;;;;;;;;;;5016324;28;20033;-70
2021/07/09 07:05:08;;;;;;;5.68;1.77;;;;;;;;;;5046761;28;20017;-75
2021/07/09 07:07:37;;;;;;;3.63;1.60;;;;;;;;;;5019395;28;20170;-74
2021/07/09 07:10:09;;;;;;;2.72;1.52;;;;;;;;;;5045626;28;20053;-77
2021/07/09 07:12:36;;;;;;;5.77;1.93;;;;;;;;;;5045124;28;20048;-78
2021/07/09 07:15:10;;;;;;;6.47;1.83;;;;;;;;;;5041166;28;20457;-74
2021/07/09 07:17:37;;;;;;;4.63;1.60;;;;;;;;;;5043709;28;20029;-75
2021/07/09 07:20:05;;;;;;;5.20;1.95;;;;;;;;;;5041744;28;20024;-74
2021/07/09 07:22:31;;;;;;;3.78;1.63;;;;;;;;;;5041094;28;20033;-73
2021/07/09 07:25:08;;;;;;;3.13;1.50;;;;;;;;;;5038517;28;21500;-75
2021/07/09 07:27:33;;;;;;;6.78;1.70;;;;;;;;;;5045121;28;20029;-76
2021/07/09 07:30:06;;;;;;;3.47;1.60;;;;;;;;;;5052388;28;20017;-76
2021/07/09 07:32:33;;;;;;;3.85;1.60;;;;;;;;;;5041792;28;20036;-71
2021/07/09 07:34:58;;;;;;;3.03;1.40;;;;;;;;;;5038025;28;20360;-74
2021/07/09 07:37:24;;;;;;;4.03;1.58;;;;;;;;;;5053719;28;20112;-73
2021/07/09 07:39:56;;;;;;;6.00;1.70;;;;;;;;;;5046478;28;20468;-76
2021/07/09 07:42:22;;;;;;;3.20;1.50;;;;;;;;;;5038430;28;20467;-75
2021/07/09 07:44:58;;;;;;;3.88;1.25;;;;;;;;;;5051862;28;20056;-74
2021/07/09 07:47:24;;;;;;;3.75;1.58;;;;;;;;;;5040293;28;20031;-75
2021/07/09 07:49:55;;;;;;;3.13;1.70;;;;;;;;;;5046749;28;20034;-73
2021/07/09 07:52:21;;;;;;;3.80;1.55;;;;;;;;;;5029357;28;20025;-73
2021/07/09 07:55:09;;;;;;;5.05;1.63;;;;;;;;;;5038911;28;20023;-75
2021/07/09 07:57:34;;;;;;;8.30;1.70;;;;;;;;;;5044155;28;20033;-74
2021/07/09 08:00:07;;;;;;;5.38;1.50;;;;;;;;;;5048375;28;20110;-76
2021/07/09 08:02:33;;;;;;;;;;;;;;;;;;5046003;28;20090;-73
2021/07/09 08:05:01;;;;;;;4.63;1.50;;;;;;;;;;5038412;28;19921;-72
2021/07/09 08:07:27;;;;;;;5.63;2.00;;;;;;;;;;5054076;28;20044;-74
2021/07/09 08:09:52;;;;;;;5.20;1.60;;;;;;;;;;5042114;28;20461;-75
2021/07/09 08:12:18;;;;;;;2.78;1.23;;;;;;;;;;5049197;28;20044;-74
2021/07/09 08:14:44;;;;;;;3.42;1.48;;;;;;;;;;5072626;28;20021;-73
2021/07/09 08:17:10;;;;;;;3.30;1.58;;;;;;;;;;5058680;28;20025;-73
2021/07/09 08:19:36;;;;;;;3.00;1.35;;;;;;;;;;5069752;28;20487;-72
2021/07/09 08:22:02;;;;;;;3.70;1.45;;;;;;;;;;5075174;28;20032;-74
2021/07/09 08:24:28;;;;;;;3.25;1.30;;;;;;;;;;5061586;28;20017;-74
2021/07/09 08:26:53;;;;;;;3.17;1.38;;;;;;;;;;5056989;28;20047;-74
2021/07/09 08:29:19;;;;;;;2.83;1.33;;;;;;;;;;5077022;28;20032;-74
2021/07/09 08:31:44;;;;;;;3.30;1.27;;;;;;;;;;5066053;28;20056;-73
2021/07/09 08:34:13;;;;;;;4.35;1.25;;;;;;;;;;5069541;28;20031;-76
2021/07/09 08:36:39;;;;;;;4.53;1.70;;;;;;;;;;5063714;28;20032;-77
2021/07/09 08:39:05;;;;;;;3.20;1.40;;;;;;;;;;5057534;28;20407;-77
2021/07/09 08:41:32;;;;;;;3.33;1.38;;;;;;;;;;5073726;28;20702;-77
2021/07/09 08:44:12;;;;;;;2.28;1.23;;;;;;;;;;5069414;28;20024;-76
2021/07/09 08:46:38;;;;;;;3.50;1.50;;;;;;;;;;5065677;28;20027;-78
2021/07/09 08:49:07;;;;;;;3.75;1.23;;;;;;;;;;5076848;28;20056;-77
2021/07/09 08:51:33;;;;;;;3.97;1.40;;;;;;;;;;5063425;28;20029;-80
2021/07/09 08:54:01;;;;;;;5.25;1.33;;;;;;;;;;5068056;28;20052;-73
2021/07/09 08:56:27;;;;;;;5.07;1.30;;;;;;;;;;5063138;28;20536;-69
2021/07/09 08:58:55;;;;;;;2.42;1.23;;;;;;;;;;5058018;28;20186;-76
2021/07/09 09:01:21;;;;;;;2.83;1.52;;;;;;;;;;5064761;28;20028;-76
2021/07/09 09:04:09;;;;;;;3.58;1.60;;;;;;;;;;5066075;28;20235;-69
2021/07/09 09:06:35;;;;;;;3.10;1.33;;;;;;;;;;5070476;28;20039;-74
2021/07/09 09:09:13;;;;;;;6.50;1.58;;;;;;;;;;5071885;28;20020;-74
2021/07/09 09:11:58;;;;;;;3.50;1.40;;;;;;;;;;5045011;28;20143;-74
2021/07/09 09:14:24;;;;;;;5.03;1.30;;;;;;;;;;5046034;28;20107;-73
2021/07/09 09:16:50;;;;;;;4.18;1.50;;;;;;;;;;5042116;28;20108;-75
2021/07/09 09:19:19;;;;;;;5.05;1.70;;;;;;;;;;5043144;28;20154;-74
2021/07/09 09:21:46;;;;;;;4.07;1.90;;;;;;;;;;5055137;28;20028;-73
2021/07/09 09:24:44;;;;;;;4.88;1.58;;;;;;;;;;5050444;28;20029;-74
2021/07/09 09:27:20;;;;;;;2.17;1.20;;;;;;;;;;5044635;28;20033;-72
2021/07/09 09:29:46;;;;;;;3.63;1.35;;;;;;;;;;5044516;28;20029;-75
2021/07/09 09:32:13;;;;;;;3.00;1.40;;;;;;;;;;5042288;28;20025;-72
2021/07/09 09:35:27;;;;;;;7.53;1.58;;;;;;;;;;5022058;28;20034;-72
2021/07/09 09:37:56;;;;;;;4.07;1.58;;;;;;;;;;5023939;28;20562;-73
2021/07/09 09:40:47;;;;;;;2.55;1.30;;;;;;;;;;5034535;28;20022;-73
2021/07/09 09:43:21;;;;;;;3.88;1.50;;;;;;;;;;5050164;28;20018;-73
2021/07/09 09:46:29;;;;;;;4.25;1.52;;;;;;;;;;5040700;28;20032;-73
2021/07/09 09:49:27;;;;;;;8.05;1.67;;;;;;;;;;5048774;28;20108;-76
2021/07/09 09:52:03;;;;;;;3.97;1.80;;;;;;;;;;5040064;28;20033;-75
2021/07/09 09:54:34;;;;;;;5.40;2.00;;;;;;;;;;5050980;28;20020;-77
2021/07/09 09:57:22;;;;;;;4.57;2.10;;;;;;;;;;5034710;28;20079;-76
2021/07/09 09:59:51;;;;;;;7.32;2.75;;;;;;;;;;5045517;28;20033;-76
2021/07/09 10:02:20;;;;;;;3.97;2.20;;;;;;;;;;5048324;28;20025;-76
2021/07/09 10:04:46;;;;;;;7.93;2.65;;;;;;;;;;5027866;28;20642;-76
2021/07/09 10:07:14;;;;;;;4.88;2.47;;;;;;;;;;5037498;28;20045;-76
2021/07/09 10:09:43;;;;;;;5.82;2.33;;;;;;;;;;5046754;28;20071;-76
2021/07/09 10:12:19;;;;;;;6.05;2.58;;;;;;;;;;5055496;28;20495;-73
2021/07/09 10:14:46;;;;;;;3.80;2.22;;;;;;;;;;5045112;28;20039;-78
2021/07/09 10:17:15;;;;;;;4.70;2.03;;;;;;;;;;5058192;28;20066;-75
2021/07/09 10:19:43;;;;;;;4.55;2.28;;;;;;;;;;5062221;28;20028;-76
2021/07/09 10:22:24;;;;;;;5.90;2.30;;;;;;;;;;5052215;28;20021;-76
2021/07/09 10:24:52;;;;;;;5.55;2.00;;;;;;;;;;5067902;28;20025;-78
2021/07/09 10:27:23;;;;;;;5.95;2.38;;;;;;;;;;5055236;28;20640;-77
2021/07/09 10:29:50;;;;;;;4.13;1.92;;;;;;;;;;5065726;28;20089;-79
2021/07/09 10:32:36;;;;;;;8.88;2.50;;;;;;;;;;5071499;28;20032;-77
2021/07/09 10:35:06;;;;;;;4.38;2.20;;;;;;;;;;5065682;28;20024;-77
2021/07/09 10:37:34;;;;;;;6.68;2.55;;;;;;;;;;5064710;28;20056;-77
2021/07/09 10:40:09;;;;;;;6.40;2.90;;;;;;;;;;5056221;28;20025;-76
2021/07/09 10:42:43;;;;;;;6.15;3.10;;;;;;;;;;5056229;28;20033;-77
2021/07/09 10:45:18;;;;;;;5.35;2.83;;;;;;;;;;5068501;28;20025;-77
2021/07/09 10:48:11;;;;;;;5.25;2.47;;;;;;;;;;5059882;28;20027;-78
2021/07/09 10:50:44;;;;;;;5.18;2.70;;;;;;;;;;5055121;28;20032;-77
2021/07/09 10:53:18;;;;;;;6.80;2.65;;;;;;;;;;5054368;28;20021;-77
2021/07/09 10:56:09;;;;;;;5.00;2.65;;;;;;;;;;5056449;28;20028;-79
2021/07/09 10:58:40;;;;;;;8.32;2.72;;;;;;;;;;5060075;28;20033;-78
2021/07/09 11:01:13;;;;;;;6.05;2.60;;;;;;;;;;5057821;28;20031;-78
2021/07/09 11:03:44;;;;;;;6.45;2.70;;;;;;;;;;5058107;28;20040;-77
2021/07/09 11:06:19;;;;;;;5.20;3.03;;;;;;;;;;5061241;28;20037;-77
2021/07/09 11:09:10;;;;;;;10.15;3.70;;;;;;;;;;5069980;28;20488;-74
2021/07/09 11:11:47;;;;;;;8.70;3.47;;;;;;;;;;5053366;28;20075;-74
2021/07/09 11:14:14;;;;;;;6.95;4.32;;;;;;;;;;5044340;28;20021;-73
2021/07/09 11:17:00;;;;;;;8.13;4.18;;;;;;;;;;5019431;28;20503;-74
2021/07/09 11:19:32;;;;;;;6.68;3.50;;;;;;;;;;5026647;28;20111;-74
2021/07/09 11:22:06;;;;;;;8.68;3.35;;;;;;;;;;5047326;28;20059;-74
2021/07/09 11:24:39;;;;;;;7.53;3.10;;;;;;;;;;5049108;28;20033;-75
2021/07/09 11:27:14;;;;;;;7.70;3.35;;;;;;;;;;5020907;28;20029;-72
2021/07/09 11:29:43;;;;;;;7.90;3.65;;;;;;;;;;5045643;28;20388;-75
2021/07/09 11:32:18;;;;;;;7.00;3.42;;;;;;;;;;5050574;28;20032;-76
2021/07/09 11:34:49;;;;;;;8.55;3.50;;;;;;;;;;5049341;28;20360;-73
2021/07/09 11:37:18;;;;;;;11.52;3.83;;;;;;;;;;5040068;28;20104;-76
2021/07/09 11:39:47;;;;;;;7.93;3.40;;;;;;;;;;5038736;28;20419;-75
2021/07/09 11:42:22;;;;;;;8.38;3.72;;;;;;;;;;5046276;28;20074;-78
2021/07/09 11:44:55;;;;;;;8.50;3.22;;;;;;;;;;5043246;28;20365;-77
2021/07/09 11:47:21;;;;;;;5.50;3.00;;;;;;;;;;5019095;28;20119;-77
2021/07/09 11:49:55;;;;;;;5.93;3.30;;;;;;;;;;5042894;28;20653;-75
2021/07/09 11:52:25;;;;;;;9.15;3.60;;;;;;;;;;5039833;28;20057;-75
2021/07/09 11:54:54;;;;;;;7.75;3.20;;;;;;;;;;5034901;28;20092;-78
2021/07/09 11:57:20;;;;;;;9.77;3.20;;;;;;;;;;5039523;28;20140;-78
2021/07/09 11:59:47;;;;;;;6.40;2.92;;;;;;;;;;5040331;28;20119;-77
2021/07/09 12:02:30;;;;;;;6.30;3.13;;;;;;;;;;5040927;28;20031;-76
2021/07/09 12:05:06;;;;;;;7.45;3.65;;;;;;;;;;5044602;28;20094;-77
2021/07/09 12:07:35;;;;;;;6.07;3.35;;;;;;;;;;5047947;28;20047;-78
2021/07/09 12:10:34;;;;;;;6.10;3.03;;;;;;;;;;5048419;28;20380;-78
2021/07/09 12:13:03;;;;;;;9.02;3.20;;;;;;;;;;5064633;28;20523;-78
2021/07/09 12:15:35;;;;;;;4.90;2.80;;;;;;;;;;5065919;28;20035;-78
2021/07/09 12:18:05;;;;;;;6.00;3.05;;;;;;;;;;5061469;28;20037;-79
2021/07/09 12:20:44;;;;;;;7.00;3.13;;;;;;;;;;5067333;28;20047;-77
2021/07/09 12:23:15;;;;;;;5.18;3.40;;;;;;;;;;5071194;28;20028;-78
2021/07/09 12:25:45;;;;;;;5.05;3.60;;;;;;;;;;5063919;28;20033;-76
2021/07/09 12:28:15;;;;;;;8.93;3.33;;;;;;;;;;5073850;28;20040;-77
2021/07/09 12:30:44;;;;;;;8.25;2.95;;;;;;;;;;5075506;28;20759;-76
2021/07/09 12:33:14;;;;;;;4.30;2.90;;;;;;;;;;5056154;28;20029;-77
2021/07/09 12:35:40;;;;;;;5.50;2.88;;;;;;;;;;5062835;28;20108;-78
2021/07/09 12:38:09;;;;;;;4.95;2.97;;;;;;;;;;5064496;28;20056;-77
2021/07/09 12:40:40;;;;;;;4.43;2.88;;;;;;;;;;5062156;28;20032;-78
2021/07/09 12:43:14;;;;;;;5.10;2.92;;;;;;;;;;5068858;28;20105;-77
2021/07/09 12:45:42;;;;;;;3.42;3.00;;;;;;;;;;5066775;28;20047;-78
2021/07/09 12:48:07;;;;;;;6.18;2.90;;;;;;;;;;5066940;28;20069;-80
2021/07/09 12:50:40;;;;;;;4.43;2.75;;;;;;;;;;5059414;28;20033;-77
2021/07/09 12:53:22;;;;;;;4.90;3.03;;;;;;;;;;5061022;28;20103;-77
2021/07/09 12:55:51;;;;;;;5.43;2.83;;;;;;;;;;5059466;28;20025;-78
2021/07/09 12:58:23;;;;;;;4.03;2.40;;;;;;;;;;5065843;28;20024;-79
2021/07/09 13:00:52;;;;;;;7.80;3.20;;;;;;;;;;5060758;28;20037;-78
2021/07/09 13:03:27;;;;;;;3.80;2.85;;;;;;;;;;5035843;28;20052;-78
2021/07/09 13:06:15;;;;;;;4.10;3.00;;;;;;;;;;5060383;28;20070;-77
2021/07/09 13:08:42;;;;;;;4.30;3.20;;;;;;;;;;5072083;28;20070;-76
2021/07/09 13:11:14;;;;;;;5.70;3.47;;;;;;;;;;5055617;28;20044;-77
2021/07/09 13:13:49;;;;;;;5.55;3.05;;;;;;;;;;5044391;28;20048;-75
2021/07/09 13:16:15;;;;;;;7.13;2.50;;;;;;;;;;5048462;28;20430;-78
2021/07/09 13:18:57;;;;;;;5.70;2.80;;;;;;;;;;5039697;28;20029;-77
2021/07/09 13:21:29;;;;;;;3.58;2.88;;;;;;;;;;5020200;28;20425;-76
2021/07/09 13:24:11;;;;;;;3.03;2.53;;;;;;;;;;5053835;28;20112;-77
2021/07/09 13:26:42;;;;;;;6.40;2.70;;;;;;;;;;5039494;28;20493;-77
2021/07/09 13:29:31;;;;;;;3.53;2.30;;;;;;;;;;5046174;28;20472;-77
2021/07/09 13:31:59;;;;;;;3.30;2.50;;;;;;;;;;5044506;28;20048;-77
2021/07/09 13:34:29;;;;;;;2.75;2.30;;;;;;;;;;5030029;28;20031;-75
2021/07/09 13:36:54;;;;;;;4.25;2.50;;;;;;;;;;5037805;28;20526;-73
2021/07/09 13:39:28;;;;;;;3.90;1.98;;;;;;;;;;5044035;28;20032;-73
2021/07/09 13:41:53;;;;;;;2.53;1.80;;;;;;;;;;5049330;28;20101;-74
2021/07/09 13:44:19;;;;;;;4.43;2.13;;;;;;;;;;5046716;28;20136;-76
2021/07/09 13:47:03;;;;;;;2.35;1.95;;;;;;;;;;5055860;28;20016;-76
2021/07/09 13:49:29;;;;;;;3.72;1.90;;;;;;;;;;5054929;28;20108;-77
2021/07/09 13:51:54;;;;;;;3.90;2.38;;;;;;;;;;5035656;28;20048;-76
2021/07/09 13:54:20;;;;;;;4.05;2.08;;;;;;;;;;5024816;28;20048;-77
2021/07/09 13:56:58;;;;;;;3.22;2.35;;;;;;;;;;5054117;28;20029;-76
2021/07/09 13:59:23;;;;;;;4.47;2.60;;;;;;;;;;5031581;28;20075;-76
2021/07/09 14:01:56;;;;;;;4.90;2.85;;;;;;;;;;5040647;28;20025;-76
2021/07/09 14:04:22;;;;;;;6.10;3.30;;;;;;;;;;5043419;28;20029;-76
2021/07/09 14:06:57;;;;;;;7.18;3.50;;;;;;;;;;5044223;28;20032;-75
2021/07/09 14:09:23;;;;;;;8.05;4.00;;;;;;;;;;5048868;28;20079;-75
2021/07/09 14:11:50;;;;;;;8.85;3.92;;;;;;;;;;5044645;28;20033;-76
2021/07/09 14:14:17;;;;;;;8.27;3.85;;;;;;;;;;5065534;28;20012;-77
2021/07/09 14:17:02;;;;;;;6.55;3.97;;;;;;;;;;5062583;28;20377;-77
2021/07/09 14:19:28;;;;;;;8.20;4.18;;;;;;;;;;5062035;28;20048;-76
2021/07/09 14:21:53;;;;;;;8.07;4.22;;;;;;;;;;5065213;28;20547;-77
2021/07/09 14:24:19;;;;;;;9.93;4.40;;;;;;;;;;5060251;28;20021;-77
2021/07/09 14:26:46;;;;;;;8.48;4.25;;;;;;;;;;5058218;28;20024;-77
2021/07/09 14:29:14;;;;;;;10.35;4.53;;;;;;;;;;5043767;28;20029;-78
2021/07/09 14:31:42;;;;;;;9.07;4.68;;;;;;;;;;5056664;28;20033;-80
2021/07/09 14:34:07;;;;;;;9.40;4.50;;;;;;;;;;5050799;28;20025;-79
2021/07/09 14:36:36;;;;;;;8.40;4.63;;;;;;;;;;5053391;28;20035;-78
2021/07/09 14:39:02;;;;;;;9.88;5.18;;;;;;;;;;5057700;28;20021;-77
2021/07/09 14:41:28;;;;;;;10.80;5.13;;;;;;;;;;5053229;28;20024;-74
2021/07/09 14:43:54;;;;;;;8.75;5.30;;;;;;;;;;5062329;28;20029;-75
2021/07/09 14:46:19;;;;;;;6.72;5.18;;;;;;;;;;5069351;28;20055;-78
2021/07/09 14:48:46;;;;;;;13.02;6.13;;;;;;;;;;5038324;28;20074;-78
2021/07/09 14:51:13;;;;;;;10.38;5.22;;;;;;;;;;5069096;28;20415;-77
2021/07/09 14:53:38;;;;;;;10.35;4.68;;;;;;;;;;5059275;28;20086;-80
2021/07/09 14:56:05;;;;;;;7.28;4.03;;;;;;;;;;5061480;28;20020;-77
2021/07/09 14:58:31;;;;;;;11.50;4.28;;;;;;;;;;5057798;28;20025;-81
2021/07/09 15:00:57;;;;;;;8.75;4.40;;;;;;;;;;5068767;28;20047;-78